sensor_id;sensor_type;location;lat;lon;timestamp;temperature;humidity
66096;SHT31;53861;53.422;14.530;2024-03-02T00:00:50;9.40;98.62
66096;SHT31;53861;53.422;14.530;2024-03-02T00:03:18;9.42;98.67
66096;SHT31;53861;53.422;14.530;2024-03-02T00:05:49;9.45;98.67
66096;SHT31;53861;53.422;14.530;2024-03-02T00:08:22;9.42;98.65
66096;SHT31;53861;53.422;14.530;2024-03-02T00:10:51;9.42;98.69
66096;SHT31;53861;53.422;14.530;2024-03-02T00:13:21;9.40;98.70
66096;SHT31;53861;53.422;14.530;2024-03-02T00:15:53;9.39;98.82
66096;SHT31;53861;53.422;14.530;2024-03-02T00:18:25;9.47;98.77
66096;SHT31;53861;53.422;14.530;2024-03-02T00:20:53;9.52;98.74
66096;SHT31;53861;53.422;14.530;2024-03-02T00:23:22;9.45;98.83
66096;SHT31;53861;53.422;14.530;2024-03-02T00:25:54;9.38;99.00
66096;SHT31;53861;53.422;14.530;2024-03-02T00:28:24;9.46;98.99
66096;SHT31;53861;53.422;14.530;2024-03-02T00:30:55;9.43;99.16
66096;SHT31;53861;53.422;14.530;2024-03-02T00:33:26;9.46;99.16
66096;SHT31;53861;53.422;14.530;2024-03-02T00:35:54;9.47;99.23
66096;SHT31;53861;53.422;14.530;2024-03-02T00:38:21;9.38;99.61
66096;SHT31;53861;53.422;14.530;2024-03-02T00:40:49;9.39;99.60
66096;SHT31;53861;53.422;14.530;2024-03-02T00:46:19;9.40;99.91
66096;SHT31;53861;53.422;14.530;2024-03-02T00:48:56;9.33;99.99
66096;SHT31;53861;53.422;14.530;2024-03-02T00:51:24;9.42;99.99
66096;SHT31;53861;53.422;14.530;2024-03-02T00:53:53;9.38;99.99
66096;SHT31;53861;53.422;14.530;2024-03-02T00:56:23;9.43;99.99
66096;SHT31;53861;53.422;14.530;2024-03-02T01:02:04;9.38;99.99
66096;SHT31;53861;53.422;14.530;2024-03-02T01:04:31;9.39;99.99
66096;SHT31;53861;53.422;14.530;2024-03-02T01:06:59;9.42;99.99
66096;SHT31;53861;53.422;14.530;2024-03-02T01:09:26;9.47;99.99
66096;SHT31;53861;53.422;14.530;2024-03-02T01:11:53;9.47;99.99
66096;SHT31;53861;53.422;14.530;2024-03-02T01:14:21;9.52;99.99
66096;SHT31;53861;53.422;14.530;2024-03-02T01:16:48;9.53;99.99
66096;SHT31;53861;53.422;14.530;2024-03-02T01:19:17;9.56;99.99
66096;SHT31;53861;53.422;14.530;2024-03-02T01:21:45;9.66;99.99
66096;SHT31;53861;53.422;14.530;2024-03-02T01:24:12;9.59;99.99
66096;SHT31;53861;53.422;14.530;2024-03-02T01:26:40;9.53;99.99
66096;SHT31;53861;53.422;14.530;2024-03-02T01:29:07;9.50;99.99
66096;SHT31;53861;53.422;14.530;2024-03-02T01:31:34;9.52;99.99
66096;SHT31;53861;53.422;14.530;2024-03-02T01:34:02;9.57;99.99
66096;SHT31;53861;53.422;14.530;2024-03-02T01:36:31;9.56;99.99
66096;SHT31;53861;53.422;14.530;2024-03-02T01:38:58;9.59;99.99
66096;SHT31;53861;53.422;14.530;2024-03-02T01:41:25;9.60;99.99
66096;SHT31;53861;53.422;14.530;2024-03-02T01:43:53;9.53;99.99
66096;SHT31;53861;53.422;14.530;2024-03-02T01:46:20;9.62;99.99
66096;SHT31;53861;53.422;14.530;2024-03-02T01:48:47;9.60;99.99
66096;SHT31;53861;53.422;14.530;2024-03-02T01:51:15;9.59;99.99
66096;SHT31;53861;53.422;14.530;2024-03-02T01:53:43;9.57;99.99
66096;SHT31;53861;53.422;14.530;2024-03-02T01:56:11;9.59;99.99
66096;SHT31;53861;53.422;14.530;2024-03-02T01:58:38;9.46;99.99
66096;SHT31;53861;53.422;14.530;2024-03-02T02:01:05;9.49;99.99
66096;SHT31;53861;53.422;14.530;2024-03-02T02:03:33;9.55;99.99
66096;SHT31;53861;53.422;14.530;2024-03-02T02:06:00;9.47;99.99
66096;SHT31;53861;53.422;14.530;2024-03-02T02:08:28;9.42;99.99
66096;SHT31;53861;53.422;14.530;2024-03-02T02:10:56;9.52;99.99
66096;SHT31;53861;53.422;14.530;2024-03-02T02:13:24;9.52;99.99
66096;SHT31;53861;53.422;14.530;2024-03-02T02:15:51;9.57;99.99
66096;SHT31;53861;53.422;14.530;2024-03-02T02:18:19;9.55;99.99
66096;SHT31;53861;53.422;14.530;2024-03-02T02:20:46;9.53;99.99
66096;SHT31;53861;53.422;14.530;2024-03-02T02:23:15;9.56;99.99
66096;SHT31;53861;53.422;14.530;2024-03-02T02:25:44;9.57;99.99
66096;SHT31;53861;53.422;14.530;2024-03-02T02:28:11;9.57;99.99
66096;SHT31;53861;53.422;14.530;2024-03-02T02:30:39;9.59;99.99
66096;SHT31;53861;53.422;14.530;2024-03-02T02:33:06;9.67;99.99
66096;SHT31;53861;53.422;14.530;2024-03-02T02:35:33;9.73;99.99
66096;SHT31;53861;53.422;14.530;2024-03-02T02:38:02;9.72;99.99
66096;SHT31;53861;53.422;14.530;2024-03-02T02:40:31;9.70;99.99
66096;SHT31;53861;53.422;14.530;2024-03-02T02:42:59;9.75;99.99
66096;SHT31;53861;53.422;14.530;2024-03-02T02:45:26;9.80;99.99
66096;SHT31;53861;53.422;14.530;2024-03-02T02:47:53;9.83;99.99
66096;SHT31;53861;53.422;14.530;2024-03-02T02:50:20;9.77;99.99
66096;SHT31;53861;53.422;14.530;2024-03-02T02:52:48;9.77;99.99
66096;SHT31;53861;53.422;14.530;2024-03-02T02:55:16;9.77;99.99
66096;SHT31;53861;53.422;14.530;2024-03-02T02:57:45;9.83;99.99
66096;SHT31;53861;53.422;14.530;2024-03-02T03:00:14;9.89;99.99
66096;SHT31;53861;53.422;14.530;2024-03-02T03:02:44;9.80;99.99
66096;SHT31;53861;53.422;14.530;2024-03-02T03:05:13;9.86;99.99
66096;SHT31;53861;53.422;14.530;2024-03-02T03:07:41;9.79;99.99
66096;SHT31;53861;53.422;14.530;2024-03-02T03:10:10;9.84;99.99
66096;SHT31;53861;53.422;14.530;2024-03-02T03:12:37;9.84;99.99
66096;SHT31;53861;53.422;14.530;2024-03-02T03:15:09;9.91;99.99
66096;SHT31;53861;53.422;14.530;2024-03-02T03:17:37;9.93;99.99
66096;SHT31;53861;53.422;14.530;2024-03-02T03:20:05;10.01;99.99
66096;SHT31;53861;53.422;14.530;2024-03-02T03:22:35;10.00;99.99
66096;SHT31;53861;53.422;14.530;2024-03-02T03:25:03;10.04;99.99
66096;SHT31;53861;53.422;14.530;2024-03-02T03:27:30;10.07;99.99
66096;SHT31;53861;53.422;14.530;2024-03-02T03:29:58;10.03;99.99
66096;SHT31;53861;53.422;14.530;2024-03-02T03:32:26;10.06;99.99
66096;SHT31;53861;53.422;14.530;2024-03-02T03:34:54;10.11;99.99
66096;SHT31;53861;53.422;14.530;2024-03-02T03:37:21;10.11;99.99
66096;SHT31;53861;53.422;14.530;2024-03-02T03:39:50;10.18;99.99
66096;SHT31;53861;53.422;14.530;2024-03-02T03:42:18;10.10;99.99
66096;SHT31;53861;53.422;14.530;2024-03-02T03:44:46;10.16;99.99
66096;SHT31;53861;53.422;14.530;2024-03-02T03:47:13;10.17;99.99
66096;SHT31;53861;53.422;14.530;2024-03-02T03:49:42;10.17;99.99
66096;SHT31;53861;53.422;14.530;2024-03-02T03:52:09;10.21;99.99
66096;SHT31;53861;53.422;14.530;2024-03-02T03:54:36;10.24;99.99
66096;SHT31;53861;53.422;14.530;2024-03-02T03:57:04;10.25;99.99
66096;SHT31;53861;53.422;14.530;2024-03-02T03:59:32;10.28;99.99
66096;SHT31;53861;53.422;14.530;2024-03-02T04:02:00;10.25;99.99
66096;SHT31;53861;53.422;14.530;2024-03-02T04:04:28;10.27;99.99
66096;SHT31;53861;53.422;14.530;2024-03-02T04:06:57;10.30;99.99
66096;SHT31;53861;53.422;14.530;2024-03-02T04:09:24;10.34;99.99
66096;SHT31;53861;53.422;14.530;2024-03-02T04:11:52;10.35;99.95
66096;SHT31;53861;53.422;14.530;2024-03-02T04:14:20;10.38;99.98
66096;SHT31;53861;53.422;14.530;2024-03-02T04:16:47;10.37;99.96
66096;SHT31;53861;53.422;14.530;2024-03-02T04:19:14;10.34;99.99
66096;SHT31;53861;53.422;14.530;2024-03-02T04:21:42;10.37;99.99
66096;SHT31;53861;53.422;14.530;2024-03-02T04:24:10;10.40;99.98
66096;SHT31;53861;53.422;14.530;2024-03-02T04:26:38;10.41;99.97
66096;SHT31;53861;53.422;14.530;2024-03-02T04:29:05;10.40;99.99
66096;SHT31;53861;53.422;14.530;2024-03-02T04:31:32;10.41;99.99
66096;SHT31;53861;53.422;14.530;2024-03-02T04:34:00;10.40;99.99
66096;SHT31;53861;53.422;14.530;2024-03-02T04:36:27;10.34;99.99
66096;SHT31;53861;53.422;14.530;2024-03-02T04:38:54;10.40;99.99
66096;SHT31;53861;53.422;14.530;2024-03-02T04:41:23;10.42;99.99
66096;SHT31;53861;53.422;14.530;2024-03-02T04:43:50;10.44;99.99
66096;SHT31;53861;53.422;14.530;2024-03-02T04:46:18;10.41;99.99
66096;SHT31;53861;53.422;14.530;2024-03-02T04:48:45;10.40;99.99
66096;SHT31;53861;53.422;14.530;2024-03-02T04:51:14;10.38;99.99
66096;SHT31;53861;53.422;14.530;2024-03-02T04:53:41;10.37;99.99
66096;SHT31;53861;53.422;14.530;2024-03-02T04:56:09;10.40;99.99
66096;SHT31;53861;53.422;14.530;2024-03-02T04:59:07;10.40;99.99
66096;SHT31;53861;53.422;14.530;2024-03-02T05:01:34;10.44;99.99
66096;SHT31;53861;53.422;14.530;2024-03-02T05:04:02;10.47;99.99
66096;SHT31;53861;53.422;14.530;2024-03-02T05:06:29;10.40;99.99
66096;SHT31;53861;53.422;14.530;2024-03-02T05:08:57;10.37;99.99
66096;SHT31;53861;53.422;14.530;2024-03-02T05:11:24;10.35;99.99
66096;SHT31;53861;53.422;14.530;2024-03-02T05:14:12;10.37;99.99
66096;SHT31;53861;53.422;14.530;2024-03-02T05:16:40;10.38;99.99
66096;SHT31;53861;53.422;14.530;2024-03-02T05:19:07;10.37;99.99
66096;SHT31;53861;53.422;14.530;2024-03-02T05:21:34;10.38;99.99
66096;SHT31;53861;53.422;14.530;2024-03-02T05:24:02;10.41;99.99
66096;SHT31;53861;53.422;14.530;2024-03-02T05:26:29;10.45;99.99
66096;SHT31;53861;53.422;14.530;2024-03-02T05:28:59;10.51;99.99
66096;SHT31;53861;53.422;14.530;2024-03-02T05:31:28;10.49;99.99
66096;SHT31;53861;53.422;14.530;2024-03-02T05:33:55;10.41;99.99
66096;SHT31;53861;53.422;14.530;2024-03-02T05:36:23;10.38;99.99
66096;SHT31;53861;53.422;14.530;2024-03-02T05:38:50;10.31;99.99
66096;SHT31;53861;53.422;14.530;2024-03-02T05:41:18;10.31;99.99
66096;SHT31;53861;53.422;14.530;2024-03-02T05:43:45;10.40;99.99
66096;SHT31;53861;53.422;14.530;2024-03-02T05:46:12;10.37;99.99
66096;SHT31;53861;53.422;14.530;2024-03-02T05:48:41;10.40;99.99
66096;SHT31;53861;53.422;14.530;2024-03-02T05:51:08;10.44;99.99
66096;SHT31;53861;53.422;14.530;2024-03-02T05:53:36;10.48;99.99
66096;SHT31;53861;53.422;14.530;2024-03-02T05:56:05;10.54;99.99
66096;SHT31;53861;53.422;14.530;2024-03-02T05:58:32;10.42;99.99
66096;SHT31;53861;53.422;14.530;2024-03-02T06:01:12;10.41;99.99
66096;SHT31;53861;53.422;14.530;2024-03-02T06:03:41;10.45;99.99
66096;SHT31;53861;53.422;14.530;2024-03-02T06:06:08;10.54;99.99
66096;SHT31;53861;53.422;14.530;2024-03-02T06:08:36;10.48;99.99
66096;SHT31;53861;53.422;14.530;2024-03-02T06:11:03;10.54;99.99
66096;SHT31;53861;53.422;14.530;2024-03-02T06:13:30;10.55;99.99
66096;SHT31;53861;53.422;14.530;2024-03-02T06:15:58;10.57;99.99
66096;SHT31;53861;53.422;14.530;2024-03-02T06:18:25;10.49;99.99
66096;SHT31;53861;53.422;14.530;2024-03-02T06:20:55;10.54;99.99
66096;SHT31;53861;53.422;14.530;2024-03-02T06:23:22;10.59;99.99
66096;SHT31;53861;53.422;14.530;2024-03-02T06:25:50;10.49;99.99
66096;SHT31;53861;53.422;14.530;2024-03-02T06:28:18;10.59;99.99
66096;SHT31;53861;53.422;14.530;2024-03-02T06:30:46;10.67;99.99
66096;SHT31;53861;53.422;14.530;2024-03-02T06:33:13;10.65;99.99
66096;SHT31;53861;53.422;14.530;2024-03-02T06:35:41;10.69;99.99
66096;SHT31;53861;53.422;14.530;2024-03-02T06:38:10;10.69;99.99
66096;SHT31;53861;53.422;14.530;2024-03-02T06:40:37;10.65;99.99
66096;SHT31;53861;53.422;14.530;2024-03-02T06:43:05;10.67;99.99
66096;SHT31;53861;53.422;14.530;2024-03-02T06:45:32;10.72;99.93
66096;SHT31;53861;53.422;14.530;2024-03-02T06:48:00;10.79;99.92
66096;SHT31;53861;53.422;14.530;2024-03-02T06:50:28;10.78;99.76
66096;SHT31;53861;53.422;14.530;2024-03-02T06:52:55;10.82;99.64
66096;SHT31;53861;53.422;14.530;2024-03-02T06:55:24;10.80;99.52
66096;SHT31;53861;53.422;14.530;2024-03-02T06:57:52;10.85;99.44
66096;SHT31;53861;53.422;14.530;2024-03-02T07:00:19;10.88;99.43
66096;SHT31;53861;53.422;14.530;2024-03-02T07:02:47;10.89;99.31
66096;SHT31;53861;53.422;14.530;2024-03-02T07:05:14;10.88;99.25
66096;SHT31;53861;53.422;14.530;2024-03-02T07:07:42;10.72;99.31
66096;SHT31;53861;53.422;14.530;2024-03-02T07:10:09;10.69;99.54
66096;SHT31;53861;53.422;14.530;2024-03-02T07:12:38;10.82;99.35
66096;SHT31;53861;53.422;14.530;2024-03-02T07:15:06;10.80;99.31
66096;SHT31;53861;53.422;14.530;2024-03-02T07:18:03;10.86;99.14
66096;SHT31;53861;53.422;14.530;2024-03-02T07:20:30;10.82;99.20
66096;SHT31;53861;53.422;14.530;2024-03-02T07:22:58;10.75;99.56
66096;SHT31;53861;53.422;14.530;2024-03-02T07:25:25;10.75;99.52
66096;SHT31;53861;53.422;14.530;2024-03-02T07:27:55;10.72;99.69
66096;SHT31;53861;53.422;14.530;2024-03-02T07:30:23;10.59;99.99
66096;SHT31;53861;53.422;14.530;2024-03-02T07:32:50;10.58;99.99
66096;SHT31;53861;53.422;14.530;2024-03-02T07:35:17;10.68;99.99
66096;SHT31;53861;53.422;14.530;2024-03-02T07:37:45;10.71;99.96
66096;SHT31;53861;53.422;14.530;2024-03-02T07:40:12;10.78;99.91
66096;SHT31;53861;53.422;14.530;2024-03-02T07:42:40;10.76;99.78
66096;SHT31;53861;53.422;14.530;2024-03-02T07:45:09;10.71;99.94
66096;SHT31;53861;53.422;14.530;2024-03-02T07:47:37;10.78;99.87
66096;SHT31;53861;53.422;14.530;2024-03-02T07:50:05;10.83;99.65
66096;SHT31;53861;53.422;14.530;2024-03-02T07:52:33;10.80;99.59
66096;SHT31;53861;53.422;14.530;2024-03-02T07:55:00;10.79;99.61
66096;SHT31;53861;53.422;14.530;2024-03-02T07:57:28;10.75;99.63
66096;SHT31;53861;53.422;14.530;2024-03-02T07:59:55;10.76;99.72
66096;SHT31;53861;53.422;14.530;2024-03-02T08:02:24;10.75;99.91
66096;SHT31;53861;53.422;14.530;2024-03-02T08:04:51;10.76;99.89
66096;SHT31;53861;53.422;14.530;2024-03-02T08:07:18;10.76;99.65
66096;SHT31;53861;53.422;14.530;2024-03-02T08:09:46;10.65;99.98
66096;SHT31;53861;53.422;14.530;2024-03-02T08:12:13;10.71;99.94
66096;SHT31;53861;53.422;14.530;2024-03-02T08:14:41;10.73;99.84
66096;SHT31;53861;53.422;14.530;2024-03-02T08:17:08;10.71;99.88
66096;SHT31;53861;53.422;14.530;2024-03-02T08:19:38;10.78;99.81
66096;SHT31;53861;53.422;14.530;2024-03-02T08:22:14;10.80;99.62
66096;SHT31;53861;53.422;14.530;2024-03-02T08:24:42;10.78;99.63
66096;SHT31;53861;53.422;14.530;2024-03-02T08:27:09;10.76;99.71
66096;SHT31;53861;53.422;14.530;2024-03-02T08:29:37;10.86;99.66
66096;SHT31;53861;53.422;14.530;2024-03-02T08:32:05;10.88;99.57
66096;SHT31;53861;53.422;14.530;2024-03-02T08:34:33;10.89;99.41
66096;SHT31;53861;53.422;14.530;2024-03-02T08:37:03;10.76;99.81
66096;SHT31;53861;53.422;14.530;2024-03-02T08:39:31;10.73;99.99
66096;SHT31;53861;53.422;14.530;2024-03-02T08:41:58;10.78;99.99
66096;SHT31;53861;53.422;14.530;2024-03-02T08:44:25;10.80;99.99
66096;SHT31;53861;53.422;14.530;2024-03-02T08:46:53;10.80;99.99
66096;SHT31;53861;53.422;14.530;2024-03-02T08:49:20;10.76;99.99
66096;SHT31;53861;53.422;14.530;2024-03-02T08:51:48;10.79;99.99
66096;SHT31;53861;53.422;14.530;2024-03-02T08:54:21;10.83;99.99
66096;SHT31;53861;53.422;14.530;2024-03-02T08:56:49;10.80;99.99
66096;SHT31;53861;53.422;14.530;2024-03-02T08:59:17;10.73;99.99
66096;SHT31;53861;53.422;14.530;2024-03-02T09:01:44;10.78;99.99
66096;SHT31;53861;53.422;14.530;2024-03-02T09:04:11;10.82;99.99
66096;SHT31;53861;53.422;14.530;2024-03-02T09:06:39;10.89;99.99
66096;SHT31;53861;53.422;14.530;2024-03-02T09:09:07;10.89;99.99
66096;SHT31;53861;53.422;14.530;2024-03-02T09:11:35;10.80;99.99
66096;SHT31;53861;53.422;14.530;2024-03-02T09:14:03;10.78;99.99
66096;SHT31;53861;53.422;14.530;2024-03-02T09:16:31;10.85;99.99
66096;SHT31;53861;53.422;14.530;2024-03-02T09:18:58;10.88;99.99
66096;SHT31;53861;53.422;14.530;2024-03-02T09:21:26;10.88;99.99
66096;SHT31;53861;53.422;14.530;2024-03-02T09:23:54;10.78;99.99
66096;SHT31;53861;53.422;14.530;2024-03-02T09:26:22;10.72;99.99
66096;SHT31;53861;53.422;14.530;2024-03-02T09:28:52;10.85;99.99
66096;SHT31;53861;53.422;14.530;2024-03-02T09:31:19;10.91;99.99
66096;SHT31;53861;53.422;14.530;2024-03-02T09:34:01;10.86;99.99
66096;SHT31;53861;53.422;14.530;2024-03-02T09:36:28;10.91;99.99
66096;SHT31;53861;53.422;14.530;2024-03-02T09:38:55;10.86;99.99
66096;SHT31;53861;53.422;14.530;2024-03-02T09:41:23;10.98;99.99
66096;SHT31;53861;53.422;14.530;2024-03-02T09:43:52;11.10;99.99
66096;SHT31;53861;53.422;14.530;2024-03-02T09:46:21;11.20;99.99
66096;SHT31;53861;53.422;14.530;2024-03-02T09:48:57;11.30;99.99
66096;SHT31;53861;53.422;14.530;2024-03-02T09:51:26;11.10;99.99
66096;SHT31;53861;53.422;14.530;2024-03-02T09:53:54;11.22;99.99
66096;SHT31;53861;53.422;14.530;2024-03-02T09:56:22;11.26;99.99
66096;SHT31;53861;53.422;14.530;2024-03-02T09:58:49;11.33;99.99
66096;SHT31;53861;53.422;14.530;2024-03-02T10:01:19;11.34;99.89
66096;SHT31;53861;53.422;14.530;2024-03-02T10:03:47;11.34;99.81
66096;SHT31;53861;53.422;14.530;2024-03-02T10:06:20;11.39;99.75
66096;SHT31;53861;53.422;14.530;2024-03-02T10:08:48;11.37;99.68
66096;SHT31;53861;53.422;14.530;2024-03-02T10:11:29;11.44;99.49
66096;SHT31;53861;53.422;14.530;2024-03-02T10:14:14;11.53;99.58
66096;SHT31;53861;53.422;14.530;2024-03-02T10:16:44;11.59;99.37
66096;SHT31;53861;53.422;14.530;2024-03-02T10:19:16;11.43;99.46
66096;SHT31;53861;53.422;14.530;2024-03-02T10:21:45;11.49;99.47
66096;SHT31;53861;53.422;14.530;2024-03-02T10:24:12;11.47;99.50
66096;SHT31;53861;53.422;14.530;2024-03-02T10:26:40;11.37;99.26
66096;SHT31;53861;53.422;14.530;2024-03-02T10:29:08;11.50;99.39
66096;SHT31;53861;53.422;14.530;2024-03-02T10:31:37;11.57;99.07
66096;SHT31;53861;53.422;14.530;2024-03-02T10:34:06;11.61;98.88
66096;SHT31;53861;53.422;14.530;2024-03-02T10:36:34;11.66;99.04
66096;SHT31;53861;53.422;14.530;2024-03-02T10:39:02;11.71;98.73
66096;SHT31;53861;53.422;14.530;2024-03-02T10:41:32;11.63;98.62
66096;SHT31;53861;53.422;14.530;2024-03-02T10:44:02;11.64;98.93
66096;SHT31;53861;53.422;14.530;2024-03-02T10:46:30;11.69;98.60
66096;SHT31;53861;53.422;14.530;2024-03-02T10:48:58;11.70;98.64
66096;SHT31;53861;53.422;14.530;2024-03-02T10:51:28;11.66;98.44
66096;SHT31;53861;53.422;14.530;2024-03-02T10:53:58;11.80;98.49
66096;SHT31;53861;53.422;14.530;2024-03-02T10:56:29;11.98;98.14
66096;SHT31;53861;53.422;14.530;2024-03-02T10:59:02;12.02;97.74
66096;SHT31;53861;53.422;14.530;2024-03-02T11:01:31;11.99;97.71
66096;SHT31;53861;53.422;14.530;2024-03-02T11:04:02;11.90;97.73
66096;SHT31;53861;53.422;14.530;2024-03-02T11:06:32;11.92;97.93
66096;SHT31;53861;53.422;14.530;2024-03-02T11:09:06;11.95;97.59
66096;SHT31;53861;53.422;14.530;2024-03-02T11:11:37;11.95;97.59
66096;SHT31;53861;53.422;14.530;2024-03-02T11:14:07;12.17;97.49
66096;SHT31;53861;53.422;14.530;2024-03-02T11:16:38;12.06;97.01
66096;SHT31;53861;53.422;14.530;2024-03-02T11:19:09;12.20;97.20
66096;SHT31;53861;53.422;14.530;2024-03-02T11:21:39;12.31;97.32
66096;SHT31;53861;53.422;14.530;2024-03-02T11:24:29;12.50;97.03
66096;SHT31;53861;53.422;14.530;2024-03-02T11:30:03;12.49;96.89
66096;SHT31;53861;53.422;14.530;2024-03-02T11:32:30;12.73;95.85
66096;SHT31;53861;53.422;14.530;2024-03-02T11:34:58;12.92;95.29
66096;SHT31;53861;53.422;14.530;2024-03-02T11:37:27;12.92;95.16
66096;SHT31;53861;53.422;14.530;2024-03-02T11:39:54;12.84;94.66
66096;SHT31;53861;53.422;14.530;2024-03-02T11:42:21;13.08;94.19
66096;SHT31;53861;53.422;14.530;2024-03-02T11:44:49;13.26;93.36
66096;SHT31;53861;53.422;14.530;2024-03-02T11:47:17;13.26;92.64
66096;SHT31;53861;53.422;14.530;2024-03-02T11:49:45;13.03;93.20
66096;SHT31;53861;53.422;14.530;2024-03-02T11:52:14;13.23;93.39
66096;SHT31;53861;53.422;14.530;2024-03-02T11:54:45;13.30;92.08
66096;SHT31;53861;53.422;14.530;2024-03-02T11:57:18;13.28;92.92
66096;SHT31;53861;53.422;14.530;2024-03-02T11:59:46;13.48;91.96
66096;SHT31;53861;53.422;14.530;2024-03-02T12:02:16;13.54;91.14
66096;SHT31;53861;53.422;14.530;2024-03-02T12:04:45;13.20;92.61
66096;SHT31;53861;53.422;14.530;2024-03-02T12:07:18;13.41;92.61
66096;SHT31;53861;53.422;14.530;2024-03-02T12:09:48;13.40;91.09
66096;SHT31;53861;53.422;14.530;2024-03-02T12:12:16;13.47;91.73
66096;SHT31;53861;53.422;14.530;2024-03-02T12:14:51;13.59;90.17
66096;SHT31;53861;53.422;14.530;2024-03-02T12:17:19;13.62;91.02
66096;SHT31;53861;53.422;14.530;2024-03-02T12:19:46;13.89;90.12
66096;SHT31;53861;53.422;14.530;2024-03-02T12:22:13;14.36;89.19
66096;SHT31;53861;53.422;14.530;2024-03-02T12:24:42;14.43;88.10
66096;SHT31;53861;53.422;14.530;2024-03-02T12:27:13;14.33;87.00
66096;SHT31;53861;53.422;14.530;2024-03-02T12:29:46;13.97;87.64
66096;SHT31;53861;53.422;14.530;2024-03-02T12:32:24;13.95;88.00
66096;SHT31;53861;53.422;14.530;2024-03-02T12:34:55;14.09;87.75
66096;SHT31;53861;53.422;14.530;2024-03-02T12:37:22;13.88;89.03
66096;SHT31;53861;53.422;14.530;2024-03-02T12:39:50;14.55;88.44
66096;SHT31;53861;53.422;14.530;2024-03-02T12:42:18;15.95;85.25
66096;SHT31;53861;53.422;14.530;2024-03-02T12:44:46;16.40;80.97
66096;SHT31;53861;53.422;14.530;2024-03-02T12:47:13;16.81;80.53
66096;SHT31;53861;53.422;14.530;2024-03-02T12:49:41;17.56;78.48
66096;SHT31;53861;53.422;14.530;2024-03-02T12:52:08;17.39;78.07
66096;SHT31;53861;53.422;14.530;2024-03-02T12:54:38;17.29;77.17
66096;SHT31;53861;53.422;14.530;2024-03-02T12:57:06;17.04;77.89
66096;SHT31;53861;53.422;14.530;2024-03-02T12:59:35;16.14;79.83
66096;SHT31;53861;53.422;14.530;2024-03-02T13:02:05;15.72;80.47
66096;SHT31;53861;53.422;14.530;2024-03-02T13:04:33;15.25;81.68
66096;SHT31;53861;53.422;14.530;2024-03-02T13:07:00;14.63;83.77
66096;SHT31;53861;53.422;14.530;2024-03-02T13:09:28;14.60;84.20
66096;SHT31;53861;53.422;14.530;2024-03-02T13:11:55;14.46;85.19
66096;SHT31;53861;53.422;14.530;2024-03-02T13:14:23;14.61;84.38
66096;SHT31;53861;53.422;14.530;2024-03-02T13:16:52;14.74;84.07
66096;SHT31;53861;53.422;14.530;2024-03-02T13:19:19;14.67;85.81
66096;SHT31;53861;53.422;14.530;2024-03-02T13:21:47;14.79;83.88
66096;SHT31;53861;53.422;14.530;2024-03-02T13:24:16;14.77;84.00
66096;SHT31;53861;53.422;14.530;2024-03-02T13:26:44;14.44;85.07
66096;SHT31;53861;53.422;14.530;2024-03-02T13:29:11;14.43;84.40
66096;SHT31;53861;53.422;14.530;2024-03-02T13:31:39;14.87;83.62
66096;SHT31;53861;53.422;14.530;2024-03-02T13:34:08;15.04;83.90
66096;SHT31;53861;53.422;14.530;2024-03-02T13:36:35;15.27;81.17
66096;SHT31;53861;53.422;14.530;2024-03-02T13:39:02;16.06;79.59
66096;SHT31;53861;53.422;14.530;2024-03-02T13:41:31;16.48;78.78
66096;SHT31;53861;53.422;14.530;2024-03-02T13:43:58;16.51;78.06
66096;SHT31;53861;53.422;14.530;2024-03-02T13:46:27;16.40;78.06
66096;SHT31;53861;53.422;14.530;2024-03-02T13:48:55;16.36;77.54
66096;SHT31;53861;53.422;14.530;2024-03-02T13:51:24;15.79;78.45
66096;SHT31;53861;53.422;14.530;2024-03-02T13:53:53;16.20;78.57
66096;SHT31;53861;53.422;14.530;2024-03-02T13:56:20;15.85;79.30
66096;SHT31;53861;53.422;14.530;2024-03-02T13:58:48;15.95;79.01
66096;SHT31;53861;53.422;14.530;2024-03-02T14:01:15;15.82;80.04
66096;SHT31;53861;53.422;14.530;2024-03-02T14:03:43;16.03;79.02
66096;SHT31;53861;53.422;14.530;2024-03-02T14:06:10;16.36;78.43
66096;SHT31;53861;53.422;14.530;2024-03-02T14:08:39;16.61;78.19
66096;SHT31;53861;53.422;14.530;2024-03-02T14:11:06;16.68;76.77
66096;SHT31;53861;53.422;14.530;2024-03-02T14:13:35;16.53;77.14
66096;SHT31;53861;53.422;14.530;2024-03-02T14:16:02;16.95;75.91
66096;SHT31;53861;53.422;14.530;2024-03-02T14:18:30;17.16;76.19
66096;SHT31;53861;53.422;14.530;2024-03-02T14:20:57;17.67;74.92
66096;SHT31;53861;53.422;14.530;2024-03-02T14:23:25;17.97;73.65
66096;SHT31;53861;53.422;14.530;2024-03-02T14:25:55;19.44;69.38
66096;SHT31;53861;53.422;14.530;2024-03-02T14:28:25;20.28;68.47
66096;SHT31;53861;53.422;14.530;2024-03-02T14:30:52;21.30;65.39
66096;SHT31;53861;53.422;14.530;2024-03-02T14:33:20;20.65;64.67
66096;SHT31;53861;53.422;14.530;2024-03-02T14:35:48;20.66;64.44
66096;SHT31;53861;53.422;14.530;2024-03-02T14:38:15;20.86;65.25
66096;SHT31;53861;53.422;14.530;2024-03-02T14:40:43;20.19;64.72
66096;SHT31;53861;53.422;14.530;2024-03-02T14:43:12;17.53;70.97
66096;SHT31;53861;53.422;14.530;2024-03-02T14:45:39;16.65;74.06
66096;SHT31;53861;53.422;14.530;2024-03-02T14:48:07;16.04;76.76
66096;SHT31;53861;53.422;14.530;2024-03-02T14:50:34;16.31;75.67
66096;SHT31;53861;53.422;14.530;2024-03-02T14:53:02;16.00;76.32
66096;SHT31;53861;53.422;14.530;2024-03-02T14:55:33;15.73;76.91
66096;SHT31;53861;53.422;14.530;2024-03-02T14:58:00;16.96;73.77
66096;SHT31;53861;53.422;14.530;2024-03-02T15:00:29;17.28;72.65
66096;SHT31;53861;53.422;14.530;2024-03-02T15:02:57;17.50;71.73
66096;SHT31;53861;53.422;14.530;2024-03-02T15:05:24;17.18;71.79
66096;SHT31;53861;53.422;14.530;2024-03-02T15:07:52;17.15;72.36
66096;SHT31;53861;53.422;14.530;2024-03-02T15:10:20;16.87;73.02
66096;SHT31;53861;53.422;14.530;2024-03-02T15:12:47;16.46;74.30
66096;SHT31;53861;53.422;14.530;2024-03-02T15:15:15;15.79;76.24
66096;SHT31;53861;53.422;14.530;2024-03-02T15:17:44;14.91;78.20
66096;SHT31;53861;53.422;14.530;2024-03-02T15:20:11;14.69;79.74
66096;SHT31;53861;53.422;14.530;2024-03-02T15:22:39;14.50;80.28
66096;SHT31;53861;53.422;14.530;2024-03-02T15:25:08;14.10;82.39
66096;SHT31;53861;53.422;14.530;2024-03-02T15:27:38;14.26;81.65
66096;SHT31;53861;53.422;14.530;2024-03-02T15:30:06;14.15;82.71
66096;SHT31;53861;53.422;14.530;2024-03-02T15:32:34;14.09;82.58
66096;SHT31;53861;53.422;14.530;2024-03-02T15:35:04;14.20;82.38
66096;SHT31;53861;53.422;14.530;2024-03-02T15:37:32;14.10;82.96